sensor_id;sensor_type;location;lat;lon;timestamp;P1;durP1;ratioP1;P2;durP2;ratioP2
4323;SDS011;2175;51.018;6.994;2022-10-31T00:01:54;17.87;;;9.33;;
4323;SDS011;2175;51.018;6.994;2022-10-31T00:04:19;16.20;;;9.40;;
4323;SDS011;2175;51.018;6.994;2022-10-31T00:06:45;24.00;;;10.00;;
4323;SDS011;2175;51.018;6.994;2022-10-31T00:09:10;18.30;;;9.37;;
4323;SDS011;2175;51.018;6.994;2022-10-31T00:11:36;22.07;;;9.63;;
4323;SDS011;2175;51.018;6.994;2022-10-31T00:14:02;21.03;;;9.83;;
4323;SDS011;2175;51.018;6.994;2022-10-31T00:16:28;21.77;;;9.90;;
4323;SDS011;2175;51.018;6.994;2022-10-31T00:18:55;21.73;;;10.07;;
4323;SDS011;2175;51.018;6.994;2022-10-31T00:21:22;19.47;;;8.87;;
4323;SDS011;2175;51.018;6.994;2022-10-31T00:23:48;18.23;;;9.77;;
4323;SDS011;2175;51.018;6.994;2022-10-31T00:26:14;18.27;;;9.50;;
4323;SDS011;2175;51.018;6.994;2022-10-31T00:28:40;19.27;;;8.70;;
4323;SDS011;2175;51.018;6.994;2022-10-31T00:31:07;22.23;;;9.47;;
4323;SDS011;2175;51.018;6.994;2022-10-31T00:33:35;23.93;;;9.80;;
4323;SDS011;2175;51.018;6.994;2022-10-31T00:36:02;21.43;;;9.03;;
4323;SDS011;2175;51.018;6.994;2022-10-31T00:38:29;22.70;;;9.00;;
4323;SDS011;2175;51.018;6.994;2022-10-31T00:40:55;15.30;;;8.70;;
4323;SDS011;2175;51.018;6.994;2022-10-31T00:43:20;18.00;;;9.67;;
4323;SDS011;2175;51.018;6.994;2022-10-31T00:45:46;15.60;;;9.33;;
4323;SDS011;2175;51.018;6.994;2022-10-31T00:48:12;17.90;;;8.60;;
4323;SDS011;2175;51.018;6.994;2022-10-31T00:50:38;16.63;;;9.60;;
4323;SDS011;2175;51.018;6.994;2022-10-31T00:53:04;14.17;;;8.60;;
4323;SDS011;2175;51.018;6.994;2022-10-31T00:55:30;12.20;;;8.47;;
4323;SDS011;2175;51.018;6.994;2022-10-31T00:57:56;19.97;;;9.37;;
4323;SDS011;2175;51.018;6.994;2022-10-31T01:00:21;15.80;;;9.10;;
4323;SDS011;2175;51.018;6.994;2022-10-31T01:02:47;19.27;;;9.90;;
4323;SDS011;2175;51.018;6.994;2022-10-31T01:05:13;27.17;;;10.03;;
4323;SDS011;2175;51.018;6.994;2022-10-31T01:07:39;22.77;;;9.00;;
4323;SDS011;2175;51.018;6.994;2022-10-31T01:10:06;18.50;;;9.40;;
4323;SDS011;2175;51.018;6.994;2022-10-31T01:12:40;16.57;;;8.47;;
4323;SDS011;2175;51.018;6.994;2022-10-31T01:15:07;16.37;;;9.17;;
4323;SDS011;2175;51.018;6.994;2022-10-31T01:17:34;23.70;;;9.70;;
4323;SDS011;2175;51.018;6.994;2022-10-31T01:20:00;14.73;;;8.10;;
4323;SDS011;2175;51.018;6.994;2022-10-31T01:22:26;18.43;;;9.10;;
4323;SDS011;2175;51.018;6.994;2022-10-31T01:24:51;26.13;;;9.13;;
4323;SDS011;2175;51.018;6.994;2022-10-31T01:27:17;24.80;;;9.93;;
4323;SDS011;2175;51.018;6.994;2022-10-31T01:29:42;22.80;;;9.90;;
4323;SDS011;2175;51.018;6.994;2022-10-31T01:32:08;27.27;;;9.80;;
4323;SDS011;2175;51.018;6.994;2022-10-31T01:34:34;18.83;;;9.40;;
4323;SDS011;2175;51.018;6.994;2022-10-31T01:36:59;15.27;;;9.23;;
4323;SDS011;2175;51.018;6.994;2022-10-31T01:39:25;22.23;;;9.70;;
4323;SDS011;2175;51.018;6.994;2022-10-31T01:41:51;27.10;;;9.83;;
4323;SDS011;2175;51.018;6.994;2022-10-31T01:49:57;17.40;;;8.37;;
4323;SDS011;2175;51.018;6.994;2022-10-31T01:52:01;14.77;;;9.20;;
4323;SDS011;2175;51.018;6.994;2022-10-31T01:54:36;19.33;;;10.43;;
4323;SDS011;2175;51.018;6.994;2022-10-31T01:57:06;16.20;;;9.73;;
4323;SDS011;2175;51.018;6.994;2022-10-31T01:59:35;21.10;;;9.80;;
4323;SDS011;2175;51.018;6.994;2022-10-31T02:02:05;14.10;;;9.20;;
4323;SDS011;2175;51.018;6.994;2022-10-31T02:04:31;17.10;;;9.27;;
4323;SDS011;2175;51.018;6.994;2022-10-31T02:06:58;15.90;;;9.13;;
4323;SDS011;2175;51.018;6.994;2022-10-31T02:09:35;19.77;;;9.87;;
4323;SDS011;2175;51.018;6.994;2022-10-31T02:12:02;17.13;;;8.53;;
4323;SDS011;2175;51.018;6.994;2022-10-31T02:14:29;15.63;;;9.60;;
4323;SDS011;2175;51.018;6.994;2022-10-31T02:16:56;19.13;;;9.47;;
4323;SDS011;2175;51.018;6.994;2022-10-31T02:19:34;18.70;;;8.67;;
4323;SDS011;2175;51.018;6.994;2022-10-31T02:25:08;18.00;;;9.87;;
4323;SDS011;2175;51.018;6.994;2022-10-31T02:28:06;20.47;;;9.60;;
4323;SDS011;2175;51.018;6.994;2022-10-31T02:30:41;26.80;;;9.40;;
4323;SDS011;2175;51.018;6.994;2022-10-31T02:35:49;22.33;;;10.20;;
4323;SDS011;2175;51.018;6.994;2022-10-31T02:39:06;22.13;;;9.77;;
4323;SDS011;2175;51.018;6.994;2022-10-31T02:41:15;13.50;;;8.30;;
4323;SDS011;2175;51.018;6.994;2022-10-31T02:44:02;16.07;;;8.70;;
4323;SDS011;2175;51.018;6.994;2022-10-31T02:46:43;21.73;;;9.00;;
4323;SDS011;2175;51.018;6.994;2022-10-31T02:49:28;14.97;;;9.50;;
4323;SDS011;2175;51.018;6.994;2022-10-31T02:52:34;18.73;;;9.03;;
4323;SDS011;2175;51.018;6.994;2022-10-31T02:57:50;23.40;;;9.17;;
4323;SDS011;2175;51.018;6.994;2022-10-31T03:00:19;19.63;;;9.50;;
4323;SDS011;2175;51.018;6.994;2022-10-31T03:09:20;21.90;;;9.07;;
4323;SDS011;2175;51.018;6.994;2022-10-31T03:12:13;14.77;;;8.73;;
4323;SDS011;2175;51.018;6.994;2022-10-31T03:17:47;15.60;;;9.30;;
4323;SDS011;2175;51.018;6.994;2022-10-31T03:20:15;19.13;;;9.10;;
4323;SDS011;2175;51.018;6.994;2022-10-31T03:22:45;15.20;;;9.00;;
4323;SDS011;2175;51.018;6.994;2022-10-31T03:25:11;18.23;;;8.70;;
4323;SDS011;2175;51.018;6.994;2022-10-31T03:27:38;23.27;;;9.10;;
4323;SDS011;2175;51.018;6.994;2022-10-31T03:30:07;13.27;;;8.93;;
4323;SDS011;2175;51.018;6.994;2022-10-31T03:32:35;16.40;;;8.93;;
4323;SDS011;2175;51.018;6.994;2022-10-31T03:35:04;16.13;;;8.73;;
4323;SDS011;2175;51.018;6.994;2022-10-31T03:37:32;18.70;;;10.07;;
4323;SDS011;2175;51.018;6.994;2022-10-31T03:40:00;21.33;;;8.80;;
4323;SDS011;2175;51.018;6.994;2022-10-31T03:42:29;18.47;;;9.90;;
4323;SDS011;2175;51.018;6.994;2022-10-31T03:45:04;17.30;;;8.33;;
4323;SDS011;2175;51.018;6.994;2022-10-31T03:47:33;17.70;;;10.20;;
4323;SDS011;2175;51.018;6.994;2022-10-31T03:50:01;16.50;;;9.50;;
4323;SDS011;2175;51.018;6.994;2022-10-31T03:55:17;18.03;;;8.87;;
4323;SDS011;2175;51.018;6.994;2022-10-31T03:58:03;18.83;;;9.10;;
4323;SDS011;2175;51.018;6.994;2022-10-31T04:00:33;19.30;;;9.57;;
4323;SDS011;2175;51.018;6.994;2022-10-31T04:03:10;22.53;;;10.23;;
4323;SDS011;2175;51.018;6.994;2022-10-31T04:05:39;16.00;;;9.53;;
4323;SDS011;2175;51.018;6.994;2022-10-31T04:08:08;19.03;;;9.13;;
4323;SDS011;2175;51.018;6.994;2022-10-31T04:10:37;12.97;;;8.50;;
4323;SDS011;2175;51.018;6.994;2022-10-31T04:13:06;20.83;;;9.43;;
4323;SDS011;2175;51.018;6.994;2022-10-31T04:15:35;14.10;;;9.03;;
4323;SDS011;2175;51.018;6.994;2022-10-31T04:18:03;13.77;;;8.30;;
4323;SDS011;2175;51.018;6.994;2022-10-31T04:20:34;18.80;;;9.30;;
4323;SDS011;2175;51.018;6.994;2022-10-31T04:23:05;18.10;;;9.03;;
4323;SDS011;2175;51.018;6.994;2022-10-31T04:25:44;15.50;;;9.20;;
4323;SDS011;2175;51.018;6.994;2022-10-31T04:28:10;23.60;;;9.60;;
4323;SDS011;2175;51.018;6.994;2022-10-31T04:30:36;18.33;;;9.03;;
4323;SDS011;2175;51.018;6.994;2022-10-31T04:33:01;17.33;;;9.70;;
4323;SDS011;2175;51.018;6.994;2022-10-31T04:35:27;21.20;;;8.50;;
4323;SDS011;2175;51.018;6.994;2022-10-31T04:37:52;19.60;;;8.97;;
4323;SDS011;2175;51.018;6.994;2022-10-31T04:40:18;16.30;;;8.50;;
4323;SDS011;2175;51.018;6.994;2022-10-31T04:42:43;23.97;;;9.73;;
4323;SDS011;2175;51.018;6.994;2022-10-31T04:45:09;17.87;;;8.30;;
4323;SDS011;2175;51.018;6.994;2022-10-31T04:47:35;13.83;;;9.30;;
4323;SDS011;2175;51.018;6.994;2022-10-31T04:50:01;24.37;;;9.10;;
4323;SDS011;2175;51.018;6.994;2022-10-31T04:52:27;16.10;;;9.10;;
4323;SDS011;2175;51.018;6.994;2022-10-31T04:54:53;16.17;;;9.23;;
4323;SDS011;2175;51.018;6.994;2022-10-31T04:57:18;21.63;;;9.00;;
4323;SDS011;2175;51.018;6.994;2022-10-31T04:59:44;19.77;;;10.07;;
4323;SDS011;2175;51.018;6.994;2022-10-31T05:02:10;18.37;;;8.90;;
4323;SDS011;2175;51.018;6.994;2022-10-31T05:04:35;16.90;;;9.43;;
4323;SDS011;2175;51.018;6.994;2022-10-31T05:07:01;17.70;;;9.30;;
4323;SDS011;2175;51.018;6.994;2022-10-31T05:09:26;16.50;;;9.03;;
4323;SDS011;2175;51.018;6.994;2022-10-31T05:11:52;17.97;;;8.17;;
4323;SDS011;2175;51.018;6.994;2022-10-31T05:14:17;19.20;;;9.37;;
4323;SDS011;2175;51.018;6.994;2022-10-31T05:16:43;16.30;;;9.07;;
4323;SDS011;2175;51.018;6.994;2022-10-31T05:19:09;20.03;;;9.03;;
4323;SDS011;2175;51.018;6.994;2022-10-31T05:21:34;20.80;;;9.00;;
4323;SDS011;2175;51.018;6.994;2022-10-31T05:24:00;12.30;;;9.03;;
4323;SDS011;2175;51.018;6.994;2022-10-31T05:26:25;19.90;;;9.30;;
4323;SDS011;2175;51.018;6.994;2022-10-31T05:28:51;19.07;;;9.00;;
4323;SDS011;2175;51.018;6.994;2022-10-31T05:31:16;18.80;;;9.33;;
4323;SDS011;2175;51.018;6.994;2022-10-31T05:33:42;14.43;;;8.93;;
4323;SDS011;2175;51.018;6.994;2022-10-31T05:36:08;16.00;;;9.40;;
4323;SDS011;2175;51.018;6.994;2022-10-31T05:38:33;21.03;;;9.13;;
4323;SDS011;2175;51.018;6.994;2022-10-31T05:40:59;18.77;;;9.50;;
4323;SDS011;2175;51.018;6.994;2022-10-31T05:43:27;20.77;;;8.97;;
4323;SDS011;2175;51.018;6.994;2022-10-31T05:45:54;17.67;;;9.90;;
4323;SDS011;2175;51.018;6.994;2022-10-31T05:48:21;22.10;;;9.87;;
4323;SDS011;2175;51.018;6.994;2022-10-31T05:50:47;28.77;;;10.40;;
4323;SDS011;2175;51.018;6.994;2022-10-31T05:53:13;22.87;;;10.27;;
4323;SDS011;2175;51.018;6.994;2022-10-31T05:55:39;18.93;;;10.50;;
4323;SDS011;2175;51.018;6.994;2022-10-31T05:58:08;22.67;;;11.50;;
4323;SDS011;2175;51.018;6.994;2022-10-31T06:00:34;17.83;;;9.27;;
4323;SDS011;2175;51.018;6.994;2022-10-31T06:03:04;18.47;;;9.23;;
4323;SDS011;2175;51.018;6.994;2022-10-31T06:05:31;22.20;;;10.23;;
4323;SDS011;2175;51.018;6.994;2022-10-31T06:07:57;14.27;;;9.80;;
4323;SDS011;2175;51.018;6.994;2022-10-31T06:10:23;21.80;;;10.03;;
4323;SDS011;2175;51.018;6.994;2022-10-31T06:12:48;21.13;;;9.63;;
4323;SDS011;2175;51.018;6.994;2022-10-31T06:15:16;16.23;;;10.87;;
4323;SDS011;2175;51.018;6.994;2022-10-31T06:17:42;18.50;;;10.50;;
4323;SDS011;2175;51.018;6.994;2022-10-31T06:20:08;17.70;;;11.20;;
4323;SDS011;2175;51.018;6.994;2022-10-31T06:22:34;20.60;;;10.83;;
4323;SDS011;2175;51.018;6.994;2022-10-31T06:25:00;22.20;;;10.87;;
4323;SDS011;2175;51.018;6.994;2022-10-31T06:27:25;21.50;;;11.20;;
4323;SDS011;2175;51.018;6.994;2022-10-31T06:29:51;14.60;;;9.57;;
4323;SDS011;2175;51.018;6.994;2022-10-31T06:32:17;15.90;;;10.10;;
4323;SDS011;2175;51.018;6.994;2022-10-31T06:34:43;18.73;;;10.10;;
4323;SDS011;2175;51.018;6.994;2022-10-31T06:37:10;13.77;;;9.63;;
4323;SDS011;2175;51.018;6.994;2022-10-31T06:39:37;17.03;;;9.60;;
4323;SDS011;2175;51.018;6.994;2022-10-31T06:42:03;20.20;;;9.20;;
4323;SDS011;2175;51.018;6.994;2022-10-31T06:44:29;18.87;;;9.90;;
4323;SDS011;2175;51.018;6.994;2022-10-31T06:46:55;21.83;;;10.40;;
4323;SDS011;2175;51.018;6.994;2022-10-31T06:49:21;18.77;;;9.60;;
4323;SDS011;2175;51.018;6.994;2022-10-31T06:51:47;14.50;;;9.83;;
4323;SDS011;2175;51.018;6.994;2022-10-31T06:54:13;22.00;;;10.90;;
4323;SDS011;2175;51.018;6.994;2022-10-31T06:56:38;20.40;;;9.70;;
4323;SDS011;2175;51.018;6.994;2022-10-31T06:59:05;18.23;;;9.60;;
4323;SDS011;2175;51.018;6.994;2022-10-31T07:01:31;21.90;;;9.17;;
4323;SDS011;2175;51.018;6.994;2022-10-31T07:03:56;17.53;;;8.90;;
4323;SDS011;2175;51.018;6.994;2022-10-31T07:06:22;19.73;;;9.93;;
4323;SDS011;2175;51.018;6.994;2022-10-31T07:08:47;13.87;;;9.50;;
4323;SDS011;2175;51.018;6.994;2022-10-31T07:11:13;16.37;;;10.30;;
4323;SDS011;2175;51.018;6.994;2022-10-31T07:13:39;15.90;;;9.50;;
4323;SDS011;2175;51.018;6.994;2022-10-31T07:16:05;20.73;;;9.20;;
4323;SDS011;2175;51.018;6.994;2022-10-31T07:18:40;19.97;;;10.60;;
4323;SDS011;2175;51.018;6.994;2022-10-31T07:21:09;18.30;;;9.60;;
4323;SDS011;2175;51.018;6.994;2022-10-31T07:23:35;17.10;;;9.77;;
4323;SDS011;2175;51.018;6.994;2022-10-31T07:26:00;17.10;;;9.87;;
4323;SDS011;2175;51.018;6.994;2022-10-31T07:28:26;26.70;;;10.23;;
4323;SDS011;2175;51.018;6.994;2022-10-31T07:30:53;22.23;;;10.83;;
4323;SDS011;2175;51.018;6.994;2022-10-31T07:33:21;19.90;;;10.43;;
4323;SDS011;2175;51.018;6.994;2022-10-31T07:35:47;14.83;;;10.30;;
4323;SDS011;2175;51.018;6.994;2022-10-31T07:38:13;16.50;;;10.40;;
4323;SDS011;2175;51.018;6.994;2022-10-31T07:40:40;21.77;;;10.60;;
4323;SDS011;2175;51.018;6.994;2022-10-31T07:43:06;25.93;;;12.70;;
4323;SDS011;2175;51.018;6.994;2022-10-31T07:45:32;30.93;;;12.30;;
4323;SDS011;2175;51.018;6.994;2022-10-31T07:47:57;27.23;;;12.00;;
4323;SDS011;2175;51.018;6.994;2022-10-31T07:50:27;22.00;;;11.60;;
4323;SDS011;2175;51.018;6.994;2022-10-31T07:53:14;21.23;;;11.10;;
4323;SDS011;2175;51.018;6.994;2022-10-31T07:55:40;16.00;;;10.00;;
4323;SDS011;2175;51.018;6.994;2022-10-31T07:58:10;20.30;;;11.53;;
4323;SDS011;2175;51.018;6.994;2022-10-31T08:00:38;18.33;;;11.90;;
4323;SDS011;2175;51.018;6.994;2022-10-31T08:03:06;24.70;;;11.13;;
4323;SDS011;2175;51.018;6.994;2022-10-31T08:05:38;16.30;;;10.53;;
4323;SDS011;2175;51.018;6.994;2022-10-31T08:08:05;20.60;;;11.33;;
4323;SDS011;2175;51.018;6.994;2022-10-31T08:10:32;15.60;;;10.50;;
4323;SDS011;2175;51.018;6.994;2022-10-31T08:12:59;23.63;;;9.90;;
4323;SDS011;2175;51.018;6.994;2022-10-31T08:15:29;19.33;;;10.93;;
4323;SDS011;2175;51.018;6.994;2022-10-31T08:17:56;25.33;;;10.47;;
4323;SDS011;2175;51.018;6.994;2022-10-31T08:20:21;18.20;;;11.50;;
4323;SDS011;2175;51.018;6.994;2022-10-31T08:22:54;17.80;;;11.17;;
4323;SDS011;2175;51.018;6.994;2022-10-31T08:25:24;22.67;;;11.67;;
4323;SDS011;2175;51.018;6.994;2022-10-31T08:27:51;20.93;;;10.70;;
4323;SDS011;2175;51.018;6.994;2022-10-31T08:30:19;20.33;;;11.43;;
4323;SDS011;2175;51.018;6.994;2022-10-31T08:32:46;15.53;;;9.87;;
4323;SDS011;2175;51.018;6.994;2022-10-31T08:35:12;16.57;;;11.27;;
4323;SDS011;2175;51.018;6.994;2022-10-31T08:37:38;22.50;;;11.10;;
4323;SDS011;2175;51.018;6.994;2022-10-31T08:40:04;24.30;;;11.60;;
4323;SDS011;2175;51.018;6.994;2022-10-31T08:42:31;25.13;;;11.40;;
4323;SDS011;2175;51.018;6.994;2022-10-31T08:44:57;24.83;;;10.50;;
4323;SDS011;2175;51.018;6.994;2022-10-31T08:47:23;21.30;;;11.27;;
4323;SDS011;2175;51.018;6.994;2022-10-31T08:49:48;21.00;;;11.60;;
4323;SDS011;2175;51.018;6.994;2022-10-31T08:52:14;25.43;;;12.50;;
4323;SDS011;2175;51.018;6.994;2022-10-31T08:54:40;21.93;;;11.27;;
4323;SDS011;2175;51.018;6.994;2022-10-31T08:57:06;21.50;;;13.00;;
4323;SDS011;2175;51.018;6.994;2022-10-31T08:59:32;22.23;;;13.03;;
4323;SDS011;2175;51.018;6.994;2022-10-31T09:01:57;19.03;;;12.83;;
4323;SDS011;2175;51.018;6.994;2022-10-31T09:04:23;23.13;;;13.37;;
4323;SDS011;2175;51.018;6.994;2022-10-31T09:06:49;21.73;;;13.67;;
4323;SDS011;2175;51.018;6.994;2022-10-31T09:09:14;25.70;;;13.20;;
4323;SDS011;2175;51.018;6.994;2022-10-31T09:11:40;25.13;;;12.17;;
4323;SDS011;2175;51.018;6.994;2022-10-31T09:14:05;28.73;;;13.20;;
4323;SDS011;2175;51.018;6.994;2022-10-31T09:16:31;19.27;;;12.63;;
4323;SDS011;2175;51.018;6.994;2022-10-31T09:18:56;24.20;;;11.47;;
4323;SDS011;2175;51.018;6.994;2022-10-31T09:21:22;22.87;;;12.50;;
4323;SDS011;2175;51.018;6.994;2022-10-31T09:23:48;29.90;;;12.50;;
4323;SDS011;2175;51.018;6.994;2022-10-31T09:26:13;26.67;;;12.93;;
4323;SDS011;2175;51.018;6.994;2022-10-31T09:28:39;31.80;;;12.47;;
4323;SDS011;2175;51.018;6.994;2022-10-31T09:31:05;22.43;;;12.73;;
4323;SDS011;2175;51.018;6.994;2022-10-31T09:33:30;21.83;;;11.73;;
4323;SDS011;2175;51.018;6.994;2022-10-31T09:35:57;24.73;;;12.00;;
4323;SDS011;2175;51.018;6.994;2022-10-31T09:38:23;15.97;;;11.83;;
4323;SDS011;2175;51.018;6.994;2022-10-31T09:41:01;21.43;;;11.63;;
4323;SDS011;2175;51.018;6.994;2022-10-31T09:43:50;18.87;;;11.27;;
4323;SDS011;2175;51.018;6.994;2022-10-31T09:47:02;28.63;;;13.23;;
4323;SDS011;2175;51.018;6.994;2022-10-31T09:50:02;22.10;;;12.10;;
4323;SDS011;2175;51.018;6.994;2022-10-31T09:52:33;27.97;;;11.83;;
4323;SDS011;2175;51.018;6.994;2022-10-31T09:58:15;18.77;;;11.40;;
4323;SDS011;2175;51.018;6.994;2022-10-31T10:00:44;17.67;;;10.93;;
4323;SDS011;2175;51.018;6.994;2022-10-31T10:08:26;21.30;;;11.70;;
4323;SDS011;2175;51.018;6.994;2022-10-31T10:13:55;21.93;;;10.63;;
4323;SDS011;2175;51.018;6.994;2022-10-31T10:16:36;23.00;;;11.20;;
4323;SDS011;2175;51.018;6.994;2022-10-31T10:22:09;24.47;;;10.40;;
4323;SDS011;2175;51.018;6.994;2022-10-31T10:30:21;24.73;;;10.20;;
4323;SDS011;2175;51.018;6.994;2022-10-31T10:32:54;25.70;;;10.50;;
4323;SDS011;2175;51.018;6.994;2022-10-31T10:40:32;19.07;;;9.40;;
4323;SDS011;2175;51.018;6.994;2022-10-31T10:51:59;16.33;;;8.27;;
4323;SDS011;2175;51.018;6.994;2022-10-31T11:00:25;17.77;;;7.70;;
4323;SDS011;2175;51.018;6.994;2022-10-31T11:02:59;15.70;;;7.80;;
4323;SDS011;2175;51.018;6.994;2022-10-31T11:07:53;16.83;;;7.60;;
4323;SDS011;2175;51.018;6.994;2022-10-31T11:10:19;11.97;;;6.97;;
4323;SDS011;2175;51.018;6.994;2022-10-31T11:12:58;15.97;;;6.90;;
4323;SDS011;2175;51.018;6.994;2022-10-31T11:15:47;15.50;;;7.10;;
4323;SDS011;2175;51.018;6.994;2022-10-31T11:18:27;18.00;;;7.43;;
4323;SDS011;2175;51.018;6.994;2022-10-31T11:20:58;16.40;;;7.17;;
4323;SDS011;2175;51.018;6.994;2022-10-31T11:23:26;24.00;;;7.67;;
4323;SDS011;2175;51.018;6.994;2022-10-31T11:26:02;14.10;;;6.60;;
4323;SDS011;2175;51.018;6.994;2022-10-31T11:28:30;15.23;;;7.30;;
4323;SDS011;2175;51.018;6.994;2022-10-31T11:30:59;13.20;;;6.40;;
4323;SDS011;2175;51.018;6.994;2022-10-31T11:33:48;13.73;;;6.53;;
4323;SDS011;2175;51.018;6.994;2022-10-31T11:36:26;23.90;;;7.60;;
4323;SDS011;2175;51.018;6.994;2022-10-31T11:38:55;15.53;;;6.80;;
4323;SDS011;2175;51.018;6.994;2022-10-31T11:44:12;13.13;;;6.73;;
4323;SDS011;2175;51.018;6.994;2022-10-31T11:49:15;21.07;;;6.70;;
4323;SDS011;2175;51.018;6.994;2022-10-31T11:52:13;13.03;;;6.70;;
4323;SDS011;2175;51.018;6.994;2022-10-31T11:57:47;18.50;;;7.03;;
4323;SDS011;2175;51.018;6.994;2022-10-31T12:00:29;37.80;;;6.53;;
4323;SDS011;2175;51.018;6.994;2022-10-31T12:05:40;18.00;;;6.50;;
4323;SDS011;2175;51.018;6.994;2022-10-31T12:08:10;18.20;;;7.00;;
4323;SDS011;2175;51.018;6.994;2022-10-31T12:10:49;15.60;;;6.80;;
4323;SDS011;2175;51.018;6.994;2022-10-31T12:13:37;13.87;;;6.00;;
4323;SDS011;2175;51.018;6.994;2022-10-31T12:16:33;13.60;;;6.77;;
4323;SDS011;2175;51.018;6.994;2022-10-31T12:21:57;21.07;;;6.60;;
4323;SDS011;2175;51.018;6.994;2022-10-31T12:24:36;18.10;;;6.90;;
4323;SDS011;2175;51.018;6.994;2022-10-31T12:35:01;21.33;;;7.10;;
4323;SDS011;2175;51.018;6.994;2022-10-31T12:41:10;15.30;;;5.83;;
4323;SDS011;2175;51.018;6.994;2022-10-31T12:43:58;11.73;;;6.07;;
4323;SDS011;2175;51.018;6.994;2022-10-31T12:52:00;16.07;;;6.60;;
4323;SDS011;2175;51.018;6.994;2022-10-31T12:57:59;11.93;;;5.57;;
4323;SDS011;2175;51.018;6.994;2022-10-31T13:00:30;14.97;;;6.23;;
4323;SDS011;2175;51.018;6.994;2022-10-31T13:05:44;20.30;;;6.43;;
4323;SDS011;2175;51.018;6.994;2022-10-31T13:11:02;11.43;;;6.33;;
4323;SDS011;2175;51.018;6.994;2022-10-31T13:13:37;12.90;;;5.63;;
4323;SDS011;2175;51.018;6.994;2022-10-31T13:16:17;19.67;;;7.63;;
4323;SDS011;2175;51.018;6.994;2022-10-31T13:18:51;14.43;;;5.93;;
4323;SDS011;2175;51.018;6.994;2022-10-31T13:21:57;18.60;;;6.13;;
4323;SDS011;2175;51.018;6.994;2022-10-31T13:27:02;13.50;;;5.83;;
4323;SDS011;2175;51.018;6.994;2022-10-31T13:41:17;13.70;;;5.87;;
4323;SDS011;2175;51.018;6.994;2022-10-31T13:44:04;18.93;;;5.63;;
4323;SDS011;2175;51.018;6.994;2022-10-31T13:46:38;17.50;;;5.47;;
4323;SDS011;2175;51.018;6.994;2022-10-31T13:49:19;22.90;;;5.70;;
4323;SDS011;2175;51.018;6.994;2022-10-31T13:51:47;15.63;;;5.60;;
4323;SDS011;2175;51.018;6.994;2022-10-31T13:54:24;14.70;;;5.87;;
4323;SDS011;2175;51.018;6.994;2022-10-31T13:56:57;16.20;;;6.23;;
4323;SDS011;2175;51.018;6.994;2022-10-31T13:59:24;13.87;;;6.40;;
4323;SDS011;2175;51.018;6.994;2022-10-31T14:01:56;11.00;;;5.00;;
4323;SDS011;2175;51.018;6.994;2022-10-31T14:04:35;11.87;;;6.33;;
4323;SDS011;2175;51.018;6.994;2022-10-31T14:07:07;10.70;;;5.77;;
4323;SDS011;2175;51.018;6.994;2022-10-31T14:09:39;10.03;;;5.03;;
4323;SDS011;2175;51.018;6.994;2022-10-31T14:14:52;12.30;;;6.43;;
4323;SDS011;2175;51.018;6.994;2022-10-31T14:17:24;9.10;;;5.53;;
4323;SDS011;2175;51.018;6.994;2022-10-31T14:22:36;15.53;;;5.63;;
4323;SDS011;2175;51.018;6.994;2022-10-31T14:27:54;14.50;;;6.13;;
4323;SDS011;2175;51.018;6.994;2022-10-31T14:30:21;12.83;;;6.17;;
4323;SDS011;2175;51.018;6.994;2022-10-31T14:32:53;24.73;;;6.77;;
4323;SDS011;2175;51.018;6.994;2022-10-31T14:36:11;13.97;;;5.43;;
4323;SDS011;2175;51.018;6.994;2022-10-31T14:44:16;9.30;;;5.10;;
4323;SDS011;2175;51.018;6.994;2022-10-31T14:52:37;18.97;;;5.80;;
4323;SDS011;2175;51.018;6.994;2022-10-31T14:55:05;14.40;;;5.80;;
4323;SDS011;2175;51.018;6.994;2022-10-31T14:57:36;19.50;;;6.60;;
4323;SDS011;2175;51.018;6.994;2022-10-31T15:00:07;11.93;;;5.47;;
4323;SDS011;2175;51.018;6.994;2022-10-31T15:02:49;11.67;;;5.80;;
4323;SDS011;2175;51.018;6.994;2022-10-31T15:05:31;17.33;;;5.83;;
4323;SDS011;2175;51.018;6.994;2022-10-31T15:08:00;10.37;;;5.10;;
4323;SDS011;2175;51.018;6.994;2022-10-31T15:10:33;17.47;;;5.97;;
4323;SDS011;2175;51.018;6.994;2022-10-31T15:13:17;14.33;;;5.63;;
4323;SDS011;2175;51.018;6.994;2022-10-31T15:15:44;13.43;;;5.40;;
4323;SDS011;2175;51.018;6.994;2022-10-31T15:18:14;11.23;;;5.63;;
4323;SDS011;2175;51.018;6.994;2022-10-31T15:20:43;15.97;;;5.47;;
4323;SDS011;2175;51.018;6.994;2022-10-31T15:23:11;13.10;;;5.67;;
4323;SDS011;2175;51.018;6.994;2022-10-31T15:25:50;14.03;;;5.80;;
4323;SDS011;2175;51.018;6.994;2022-10-31T15:28:24;15.13;;;5.17;;
4323;SDS011;2175;51.018;6.994;2022-10-31T15:30:51;11.90;;;5.37;;
4323;SDS011;2175;51.018;6.994;2022-10-31T15:33:21;22.27;;;5.63;;
4323;SDS011;2175;51.018;6.994;2022-10-31T15:35:58;14.60;;;5.50;;
4323;SDS011;2175;51.018;6.994;2022-10-31T15:38:26;12.73;;;5.70;;
4323;SDS011;2175;51.018;6.994;2022-10-31T15:40:57;12.93;;;5.10;;
4323;SDS011;2175;51.018;6.994;2022-10-31T15:43:29;15.33;;;5.40;;
4323;SDS011;2175;51.018;6.994;2022-10-31T15:46:02;14.47;;;4.83;;
4323;SDS011;2175;51.018;6.994;2022-10-31T15:48:31;11.63;;;4.97;;
4323;SDS011;2175;51.018;6.994;2022-10-31T15:50:59;12.30;;;5.10;;
4323;SDS011;2175;51.018;6.994;2022-10-31T15:53:26;15.50;;;5.47;;
4323;SDS011;2175;51.018;6.994;2022-10-31T15:55:55;14.43;;;5.80;;
4323;SDS011;2175;51.018;6.994;2022-10-31T15:58:23;16.63;;;5.43;;
4323;SDS011;2175;51.018;6.994;2022-10-31T16:03:56;19.40;;;5.40;;
4323;SDS011;2175;51.018;6.994;2022-10-31T16:06:25;14.83;;;4.23;;
4323;SDS011;2175;51.018;6.994;2022-10-31T16:09:02;18.30;;;5.27;;
4323;SDS011;2175;51.018;6.994;2022-10-31T16:16:30;16.93;;;5.10;;
4323;SDS011;2175;51.018;6.994;2022-10-31T16:18:57;10.07;;;4.53;;
4323;SDS011;2175;51.018;6.994;2022-10-31T16:21:33;14.43;;;5.83;;
4323;SDS011;2175;51.018;6.994;2022-10-31T16:24:02;13.90;;;5.10;;
4323;SDS011;2175;51.018;6.994;2022-10-31T16:26:51;14.50;;;5.23;;
4323;SDS011;2175;51.018;6.994;2022-10-31T16:29:26;16.33;;;5.50;;
4323;SDS011;2175;51.018;6.994;2022-10-31T16:32:04;13.87;;;4.80;;
4323;SDS011;2175;51.018;6.994;2022-10-31T16:34:29;16.87;;;5.20;;
4323;SDS011;2175;51.018;6.994;2022-10-31T16:36:55;10.17;;;4.70;;
4323;SDS011;2175;51.018;6.994;2022-10-31T16:39:21;16.10;;;6.00;;
4323;SDS011;2175;51.018;6.994;2022-10-31T16:41:48;12.80;;;4.97;;
4323;SDS011;2175;51.018;6.994;2022-10-31T16:44:21;10.83;;;4.73;;
4323;SDS011;2175;51.018;6.994;2022-10-31T16:46:51;17.53;;;5.27;;
4323;SDS011;2175;51.018;6.994;2022-10-31T16:49:34;15.00;;;6.10;;
4323;SDS011;2175;51.018;6.994;2022-10-31T16:51:59;14.07;;;5.33;;
4323;SDS011;2175;51.018;6.994;2022-10-31T16:54:25;13.63;;;5.33;;
4323;SDS011;2175;51.018;6.994;2022-10-31T16:56:50;24.37;;;5.40;;
4323;SDS011;2175;51.018;6.994;2022-10-31T16:59:16;19.03;;;5.80;;
4323;SDS011;2175;51.018;6.994;2022-10-31T17:01:47;18.60;;;6.27;;
4323;SDS011;2175;51.018;6.994;2022-10-31T17:04:14;15.13;;;5.53;;
4323;SDS011;2175;51.018;6.994;2022-10-31T17:06:40;15.30;;;5.37;;
4323;SDS011;2175;51.018;6.994;2022-10-31T17:09:06;16.03;;;5.40;;
4323;SDS011;2175;51.018;6.994;2022-10-31T17:11:32;11.13;;;4.83;;
4323;SDS011;2175;51.018;6.994;2022-10-31T17:13:58;15.43;;;5.50;;
4323;SDS011;2175;51.018;6.994;2022-10-31T17:16:24;18.73;;;6.00;;
4323;SDS011;2175;51.018;6.994;2022-10-31T17:18:49;19.93;;;5.47;;
4323;SDS011;2175;51.018;6.994;2022-10-31T17:21:17;14.10;;;5.73;;
4323;SDS011;2175;51.018;6.994;2022-10-31T17:23:46;12.47;;;6.13;;
4323;SDS011;2175;51.018;6.994;2022-10-31T17:26:12;17.57;;;5.97;;
4323;SDS011;2175;51.018;6.994;2022-10-31T17:28:38;24.17;;;5.30;;
4323;SDS011;2175;51.018;6.994;2022-10-31T17:31:04;14.17;;;5.70;;
4323;SDS011;2175;51.018;6.994;2022-10-31T17:33:30;19.13;;;6.57;;
4323;SDS011;2175;51.018;6.994;2022-10-31T17:35:59;13.37;;;5.90;;
4323;SDS011;2175;51.018;6.994;2022-10-31T17:38:27;13.00;;;5.20;;
4323;SDS011;2175;51.018;6.994;2022-10-31T17:40:52;14.10;;;5.00;;
4323;SDS011;2175;51.018;6.994;2022-10-31T17:43:18;16.60;;;5.70;;
4323;SDS011;2175;51.018;6.994;2022-10-31T17:45:43;18.33;;;5.40;;